Maria Madre — IVEJ — position and weather

sailwx.info

Track history (hours):
 
Tides and Currents Weather Stations Pressure Air Temp Water Temp Dewpoint Dewpoint Depression Visibility Wind Speed Wind Dir Waves Ship Positions

Maria Madre

Last reported at 2017-Aug-17 16:45 UTC. Time now 2017-Aug-17 23:32 UTC.
Position N 40°37' E 014°30'.

Length 28 m; draft 1 m.

Type: Ship. MMSI: 247212600.

Date/timePositionNaut miles runAvg speedWind from/ knotsBaromVisibWave heightAir tempDewpointWater temp
2017-Aug-17 16:45N 40°37' E 014°30'1 2.8
2017-Aug-17 16:30N 40°38' E 014°29'5 2.3
2017-Aug-17 14:16N 40°38' E 014°36'0 0.4
2017-Aug-17 13:59N 40°38' E 014°36'510.6
2017-Aug-17 13:29N 40°38' E 014°29'0 0.0
2017-Aug-17 11:13N 40°38' E 014°29'2 7.9
2017-Aug-17 11:01N 40°36' E 014°31'0 0.0
2017-Aug-16 16:31N 40°36' E 014°31'114.6
2017-Aug-16 16:26N 40°37' E 014°29'5 2.3
2017-Aug-16 14:13N 40°38' E 014°36'2 6.8
2017-Aug-16 13:55N 40°36' E 014°34'4 9.6
2017-Aug-16 13:30N 40°38' E 014°29'0 0.0
2017-Aug-16 13:00N 40°38' E 014°29'4 5.7
2017-Aug-16 12:23N 40°36' E 014°33'3 6.8
2017-Aug-16 12:00N 40°38' E 014°36'3 1.6
2017-Aug-16 10:00N 40°36' E 014°32'2 3.0
2017-Aug-16 09:26N 40°37' E 014°30'1 0.0
2017-Aug-15 12:53N 40°37' E 014°29'0 0.8
2017-Aug-15 12:18N 40°38' E 014°29'0 0.1
2017-Aug-15 12:00N 40°38' E 014°29'0 0.1
2017-Aug-15 11:15N 40°38' E 014°29'  
2017-Aug-12 11:50N 40°36' E 014°32'2 5.8
2017-Aug-12 11:25N 40°38' E 014°29'0 0.0
2017-Aug-10 14:36N 40°37' E 014°29'0 0.0
2017-Aug-08 13:23N 40°37' E 014°29'0 0.9
2017-Aug-08 12:50N 40°38' E 014°29'1 1.5
2017-Aug-08 12:29N 40°37' E 014°29'  
Track history (hours):
 
Tides and Currents Weather Stations Pressure Air Temp Water Temp Dewpoint Dewpoint Depression Visibility Wind Speed Wind Dir Waves Ship Positions

Maria Madre

Last reported at 2017-Aug-17 16:45 UTC. Time now 2017-Aug-17 23:32 UTC.
Position N 40°37' E 014°30'.

Length 28 m; draft 1 m.

Type: Ship. MMSI: 247212600.

Date/timePositionNaut miles runAvg speedWind from/ knotsBaromVisibWave heightAir tempDewpointWater temp
2017-Aug-17 16:45N 40°37' E 014°30'1 2.8
2017-Aug-17 16:30N 40°38' E 014°29'5 2.3
2017-Aug-17 14:16N 40°38' E 014°36'0 0.4
2017-Aug-17 13:59N 40°38' E 014°36'510.6
2017-Aug-17 13:29N 40°38' E 014°29'0 0.0
2017-Aug-17 11:13N 40°38' E 014°29'2 7.9
2017-Aug-17 11:01N 40°36' E 014°31'0 0.0
2017-Aug-16 16:31N 40°36' E 014°31'114.6
2017-Aug-16 16:26N 40°37' E 014°29'5 2.3
2017-Aug-16 14:13N 40°38' E 014°36'2 6.8
2017-Aug-16 13:55N 40°36' E 014°34'4 9.6
2017-Aug-16 13:30N 40°38' E 014°29'0 0.0
2017-Aug-16 13:00N 40°38' E 014°29'4 5.7
2017-Aug-16 12:23N 40°36' E 014°33'3 6.8
2017-Aug-16 12:00N 40°38' E 014°36'3 1.6
2017-Aug-16 10:00N 40°36' E 014°32'2 3.0
2017-Aug-16 09:26N 40°37' E 014°30'1 0.0
2017-Aug-15 12:53N 40°37' E 014°29'0 0.8
2017-Aug-15 12:18N 40°38' E 014°29'0 0.1
2017-Aug-15 12:00N 40°38' E 014°29'0 0.1
2017-Aug-15 11:15N 40°38' E 014°29'  
2017-Aug-12 11:50N 40°36' E 014°32'2 5.8
2017-Aug-12 11:25N 40°38' E 014°29'0 0.0
2017-Aug-10 14:36N 40°37' E 014°29'0 0.0
2017-Aug-08 13:23N 40°37' E 014°29'0 0.9
2017-Aug-08 12:50N 40°38' E 014°29'1 1.5
2017-Aug-08 12:29N 40°37' E 014°29'  

Dump ship's entire track history